createdAt,value
2022-09-12T00:01:49.604Z,83.37
2022-09-12T00:04:13.182Z,83.76
2022-09-12T00:06:38.675Z,83.60
2022-09-12T00:09:08.347Z,84.38
2022-09-12T00:11:32.267Z,83.14
2022-09-12T00:13:58.367Z,83.07
2022-09-12T00:16:25.544Z,82.86
2022-09-12T00:18:49.741Z,82.90
2022-09-12T00:21:13.947Z,82.83
2022-09-12T00:23:37.477Z,84.19
2022-09-12T00:26:05.858Z,83.70
2022-09-12T00:28:29.380Z,83.35
2022-09-12T00:30:52.982Z,82.58
2022-09-12T00:33:19.000Z,82.60
2022-09-12T00:35:44.634Z,83.07
2022-09-12T00:38:08.176Z,83.08
2022-09-12T00:40:31.754Z,82.86
2022-09-12T00:42:56.663Z,83.17
2022-09-12T00:45:26.023Z,83.63
2022-09-12T00:47:49.623Z,84.15
2022-09-12T00:50:16.358Z,84.14
2022-09-12T00:52:46.159Z,85.23
2022-09-12T00:55:14.736Z,84.39
2022-09-12T00:57:46.150Z,84.62
2022-09-12T01:00:16.162Z,83.82
2022-09-12T01:02:39.996Z,83.25
2022-09-12T01:05:03.649Z,82.94
2022-09-12T01:07:27.806Z,83.12
2022-09-12T01:09:51.563Z,83.21
2022-09-12T01:12:16.872Z,83.34
2022-09-12T01:14:41.131Z,84.12
2022-09-12T01:17:06.214Z,83.93
2022-09-12T01:20:24.050Z,83.71
2022-09-12T01:23:41.783Z,83.07
2022-09-12T01:26:39.685Z,84.85
2022-09-12T01:29:31.620Z,85.16
2022-09-12T01:32:06.801Z,85.13
2022-09-12T01:34:44.447Z,84.19
2022-09-12T01:37:16.538Z,84.50
2022-09-12T01:39:54.766Z,84.75
2022-09-12T01:42:25.923Z,84.65
2022-09-12T01:44:56.530Z,83.83
2022-09-12T01:47:30.830Z,83.98
2022-09-12T01:50:03.106Z,84.05
2022-09-12T01:52:31.790Z,83.90
2022-09-12T01:55:02.105Z,83.89
2022-09-12T01:57:33.388Z,85.53
2022-09-12T02:00:01.916Z,84.08
2022-09-12T02:02:34.916Z,83.92
2022-09-12T02:05:03.922Z,84.08
2022-09-12T02:07:32.883Z,85.49
2022-09-12T02:10:01.549Z,84.53
2022-09-12T02:12:33.135Z,85.35
2022-09-12T02:15:03.928Z,84.56
2022-09-12T02:17:31.258Z,84.49
2022-09-12T02:20:00.281Z,85.37
2022-09-12T02:22:27.203Z,84.56
2022-09-12T02:24:56.303Z,87.14
2022-09-12T02:27:25.243Z,86.33
2022-09-12T02:29:49.928Z,86.01
2022-09-12T02:32:26.570Z,87.16
2022-09-12T02:34:59.661Z,88.53
2022-09-12T02:37:35.463Z,87.10
2022-09-12T02:40:00.378Z,86.88
2022-09-12T02:42:24.731Z,87.40
2022-09-12T02:44:48.482Z,86.70
2022-09-12T02:47:18.354Z,85.57
2022-09-12T02:49:41.978Z,85.62
2022-09-12T02:52:07.118Z,87.56
2022-09-12T02:54:31.818Z,86.11
2022-09-12T02:56:55.557Z,86.01
2022-09-12T02:59:22.604Z,89.24
2022-09-12T03:02:07.605Z,88.41
2022-09-12T03:04:48.943Z,88.91
2022-09-12T03:07:22.961Z,87.39
2022-09-12T03:09:51.290Z,88.36
2022-09-12T03:12:30.358Z,88.27
2022-09-12T03:15:10.944Z,89.18
2022-09-12T03:17:50.676Z,90.20
2022-09-12T03:20:18.060Z,89.61
2022-09-12T03:22:54.061Z,88.75
2022-09-12T03:25:22.765Z,88.32
2022-09-12T03:27:55.284Z,86.32
2022-09-12T03:30:19.306Z,85.74
2022-09-12T03:32:45.167Z,84.92
2022-09-12T03:35:09.626Z,86.54
2022-09-12T03:37:33.189Z,85.74
2022-09-12T03:39:58.265Z,85.22
2022-09-12T03:42:21.873Z,86.37
2022-09-12T03:44:45.521Z,85.93
2022-09-12T03:47:11.276Z,86.50
2022-09-12T03:49:35.114Z,85.44
2022-09-12T03:51:58.601Z,85.20
2022-09-12T03:54:22.162Z,84.81
2022-09-12T03:56:47.055Z,87.21
2022-09-12T03:59:10.776Z,87.17
2022-09-12T04:01:34.943Z,85.45
2022-09-12T04:03:58.567Z,85.70
2022-09-12T04:06:24.110Z,85.82
2022-09-12T04:08:50.779Z,86.17
2022-09-12T04:11:16.679Z,87.04
2022-09-12T04:13:43.722Z,85.32
2022-09-12T04:16:07.883Z,86.72
2022-09-12T04:18:32.146Z,87.79
2022-09-12T04:20:55.770Z,86.20
2022-09-12T04:23:19.755Z,86.38
2022-09-12T04:25:43.277Z,88.03
2022-09-12T04:28:06.855Z,88.37
2022-09-12T04:30:31.813Z,87.63
2022-09-12T04:32:55.425Z,88.37
2022-09-12T04:35:19.016Z,88.63
2022-09-12T04:37:42.625Z,88.21
2022-09-12T04:40:07.411Z,88.73
2022-09-12T04:42:31.595Z,87.34
2022-09-12T04:44:55.107Z,87.29
2022-09-12T04:47:20.090Z,86.07
2022-09-12T04:49:43.655Z,86.00
2022-09-12T04:52:08.114Z,87.23
2022-09-12T04:54:31.657Z,86.61
2022-09-12T04:56:56.027Z,86.89
2022-09-12T04:59:21.570Z,86.74
2022-09-12T05:01:45.271Z,86.19
2022-09-12T05:04:12.023Z,86.19
2022-09-12T05:06:38.314Z,86.04
2022-09-12T05:09:03.531Z,85.58
2022-09-12T05:11:46.929Z,85.42
2022-09-12T05:14:13.464Z,87.09
2022-09-12T05:16:37.006Z,86.92
2022-09-12T05:19:01.302Z,86.85
2022-09-12T05:21:27.664Z,88.56
2022-09-12T05:23:53.115Z,89.01
2022-09-12T05:26:19.179Z,88.20
2022-09-12T05:28:43.744Z,91.14
2022-09-12T05:31:10.523Z,90.37
2022-09-12T05:33:35.222Z,89.99
2022-09-12T05:35:58.903Z,88.30
2022-09-12T05:38:24.975Z,88.77
2022-09-12T05:40:48.519Z,89.02
2022-09-12T05:43:12.522Z,88.31
2022-09-12T05:45:36.123Z,89.07
2022-09-12T05:47:59.675Z,90.41
2022-09-12T05:50:23.343Z,90.53
2022-09-12T05:52:47.130Z,89.97
2022-09-12T05:55:12.248Z,92.97
2022-09-12T05:57:36.474Z,95.08
2022-09-12T05:59:59.999Z,94.74
2022-09-12T06:02:23.711Z,95.15
2022-09-12T06:04:47.302Z,93.75
2022-09-12T06:07:11.013Z,90.10
2022-09-12T06:09:34.540Z,87.35
2022-09-12T06:11:59.503Z,85.43
2022-09-12T06:14:23.244Z,83.69
2022-09-12T06:16:47.488Z,82.57
2022-09-12T06:19:16.576Z,80.68
2022-09-12T06:21:40.138Z,78.22
2022-09-12T06:24:03.906Z,77.60
2022-09-12T06:26:29.273Z,74.02
2022-09-12T06:28:56.639Z,74.39
2022-09-12T06:31:23.146Z,72.61
2022-09-12T06:33:49.371Z,70.06
2022-09-12T06:36:16.096Z,69.95
2022-09-12T06:38:40.101Z,69.97
2022-09-12T06:41:06.751Z,69.92
2022-09-12T06:43:30.711Z,67.12
2022-09-12T06:45:56.330Z,66.89
2022-09-12T06:48:20.153Z,65.77
2022-09-12T06:50:43.992Z,64.02
2022-09-12T06:53:07.515Z,60.74
2022-09-12T06:55:31.136Z,60.63
2022-09-12T06:57:55.798Z,60.92
2022-09-12T07:00:19.627Z,60.19
2022-09-12T07:02:44.539Z,61.99
2022-09-12T07:05:09.446Z,60.14
2022-09-12T07:07:34.422Z,61.50
2022-09-12T07:09:58.479Z,62.75
2022-09-12T07:12:21.999Z,62.57
2022-09-12T07:14:45.603Z,61.75
2022-09-12T07:17:09.813Z,64.70
2022-09-12T07:19:34.987Z,66.07
2022-09-12T07:21:58.854Z,67.04
2022-09-12T07:24:22.520Z,68.01
2022-09-12T07:26:46.063Z,67.05
2022-09-12T07:29:35.772Z,65.93
2022-09-12T07:32:01.412Z,67.12
2022-09-12T07:34:24.919Z,66.89
2022-09-12T07:36:49.876Z,68.07
2022-09-12T07:39:13.477Z,70.10
2022-09-12T07:41:37.140Z,70.62
2022-09-12T07:44:03.056Z,70.97
2022-09-12T07:46:28.015Z,72.86
2022-09-12T07:48:52.494Z,73.87
2022-09-12T07:51:16.051Z,72.15
2022-09-12T07:53:43.400Z,71.34
2022-09-12T07:56:08.435Z,70.41
2022-09-12T07:58:33.226Z,70.58
2022-09-12T08:01:03.224Z,69.62
2022-09-12T08:03:26.839Z,70.92
2022-09-12T08:05:50.380Z,70.23
2022-09-12T08:08:13.967Z,71.71
2022-09-12T08:10:38.921Z,69.22
2022-09-12T08:13:03.096Z,70.14
2022-09-12T08:15:26.686Z,70.96
2022-09-12T08:17:50.215Z,71.69
2022-09-12T08:20:13.910Z,71.90
2022-09-12T08:22:37.451Z,71.16
2022-09-12T08:25:00.975Z,71.76
2022-09-12T08:27:25.973Z,70.23
2022-09-12T08:29:49.491Z,70.38
2022-09-12T08:32:13.043Z,71.16
2022-09-12T08:34:36.594Z,70.85
2022-09-12T08:37:00.171Z,70.80
2022-09-12T08:39:24.656Z,71.13
2022-09-12T08:41:50.110Z,71.48
2022-09-12T08:44:52.154Z,67.44
2022-09-12T08:47:25.278Z,68.27
2022-09-12T08:50:00.706Z,66.24
2022-09-12T08:52:32.002Z,65.88
2022-09-12T08:54:56.516Z,63.65
2022-09-12T08:57:20.411Z,62.89
2022-09-12T08:59:48.323Z,64.40
2022-09-12T09:02:38.955Z,63.43
2022-09-12T09:05:16.354Z,63.00
2022-09-12T09:08:24.059Z,61.94
2022-09-12T09:10:53.633Z,62.11
2022-09-12T09:13:51.846Z,63.66
2022-09-12T09:16:26.898Z,63.16
2022-09-12T09:18:52.559Z,60.18
2022-09-12T09:21:25.311Z,63.34
2022-09-12T09:23:54.988Z,60.66
2022-09-12T09:26:26.733Z,60.45
2022-09-12T09:28:55.602Z,59.02
2022-09-12T09:31:23.494Z,59.78
2022-09-12T09:33:51.939Z,59.04
2022-09-12T09:36:23.978Z,57.97
2022-09-12T09:38:51.394Z,58.87
2022-09-12T09:41:36.118Z,58.60
2022-09-12T09:44:01.025Z,58.70
2022-09-12T09:46:26.396Z,57.06
2022-09-12T09:48:51.879Z,55.15
2022-09-12T09:51:19.036Z,54.28
2022-09-12T09:53:50.025Z,56.00
2022-09-12T09:56:30.602Z,53.67
2022-09-12T09:58:54.300Z,52.30
2022-09-12T10:01:20.031Z,53.30
2022-09-12T10:03:51.253Z,52.65
2022-09-12T10:06:42.178Z,52.81
2022-09-12T10:09:18.934Z,51.16
2022-09-12T10:11:45.930Z,51.48
2022-09-12T10:14:31.539Z,52.16
2022-09-12T10:16:55.335Z,49.34
2022-09-12T10:19:25.087Z,53.72
2022-09-12T10:21:52.867Z,50.34
2022-09-12T10:24:24.893Z,52.01
2022-09-12T10:26:56.743Z,53.19
2022-09-12T10:29:28.032Z,52.82
2022-09-12T10:31:55.546Z,48.84
2022-09-12T10:34:33.538Z,47.82
2022-09-12T10:37:04.286Z,50.72
2022-09-12T10:39:28.352Z,55.85
2022-09-12T10:41:51.924Z,52.67
2022-09-12T10:44:18.827Z,48.42
2022-09-12T10:46:42.395Z,54.28
2022-09-12T10:49:28.043Z,49.38
2022-09-12T10:51:51.958Z,53.38
2022-09-12T10:54:20.998Z,52.95
2022-09-12T10:56:59.491Z,55.58
2022-09-12T10:59:35.191Z,45.85
2022-09-12T11:02:02.913Z,49.33
2022-09-12T11:04:43.241Z,46.95
2022-09-12T11:07:44.987Z,47.39
2022-09-12T11:10:27.295Z,46.54
2022-09-12T11:12:59.840Z,50.92
2022-09-12T11:15:38.635Z,50.42
2022-09-12T11:18:12.255Z,52.46
2022-09-12T11:20:55.092Z,48.62
2022-09-12T11:23:48.506Z,47.66
2022-09-12T11:26:28.368Z,44.57
2022-09-12T11:29:05.862Z,45.45
2022-09-12T11:32:16.355Z,42.40
2022-09-12T11:34:58.346Z,44.78
2022-09-12T11:37:44.736Z,45.01
2022-09-12T11:40:28.912Z,45.63
2022-09-12T11:42:57.558Z,44.77
2022-09-12T11:45:28.131Z,44.63
2022-09-12T11:47:56.858Z,43.16
2022-09-12T11:50:27.714Z,47.30
2022-09-12T11:52:53.963Z,43.31
2022-09-12T11:55:21.162Z,46.20
2022-09-12T11:57:49.188Z,44.27
2022-09-12T12:00:20.181Z,44.89
2022-09-12T12:02:55.418Z,42.70
2022-09-12T12:05:24.139Z,42.72
2022-09-12T12:07:56.319Z,42.93
2022-09-12T12:10:27.068Z,47.70
2022-09-12T12:12:51.847Z,48.64
2022-09-12T12:15:17.775Z,46.73
2022-09-12T12:17:41.478Z,43.30
2022-09-12T12:20:09.439Z,41.04
2022-09-12T12:22:33.762Z,42.06
2022-09-12T12:25:39.118Z,43.18
2022-09-12T12:28:05.480Z,48.30
2022-09-12T12:31:03.389Z,44.96
2022-09-12T12:34:15.282Z,47.93
2022-09-12T12:36:42.440Z,46.93
2022-09-12T12:40:03.081Z,46.78
2022-09-12T12:43:05.463Z,42.90
2022-09-12T12:46:14.604Z,48.01
2022-09-12T12:49:12.690Z,45.22
2022-09-12T12:51:58.099Z,43.90
2022-09-12T12:54:54.281Z,45.47
2022-09-12T12:57:24.539Z,46.53
2022-09-12T12:59:53.439Z,45.62
2022-09-12T13:02:24.487Z,44.95
2022-09-12T13:04:49.751Z,43.41
2022-09-12T13:07:29.421Z,45.99
2022-09-12T13:09:54.542Z,45.09
2022-09-12T13:12:23.256Z,45.46
2022-09-12T13:14:55.564Z,44.69
2022-09-12T13:17:29.888Z,45.64
2022-09-12T13:20:24.122Z,47.34
2022-09-12T13:22:48.378Z,44.83
2022-09-12T13:25:26.628Z,44.49
2022-09-12T13:28:18.537Z,46.80
2022-09-12T13:30:47.256Z,49.19
2022-09-12T13:33:22.885Z,48.05
2022-09-12T13:36:32.004Z,44.54
2022-09-12T13:39:16.531Z,48.01
2022-09-12T13:42:28.176Z,46.13
2022-09-12T13:44:55.747Z,42.90
2022-09-12T13:47:31.708Z,44.57
2022-09-12T13:49:56.355Z,45.14
2022-09-12T13:52:25.682Z,45.61
2022-09-12T13:54:54.769Z,45.03
2022-09-12T13:57:37.701Z,49.01
2022-09-12T14:00:06.342Z,43.61
2022-09-12T14:02:31.528Z,48.27
2022-09-12T14:05:13.601Z,47.79
2022-09-12T14:07:55.286Z,50.71
2022-09-12T14:10:28.189Z,49.73
2022-09-12T14:12:52.894Z,45.72
2022-09-12T14:15:24.533Z,44.63
2022-09-12T14:17:54.815Z,48.41
2022-09-12T14:20:19.916Z,49.42
2022-09-12T14:22:45.589Z,50.13
2022-09-12T14:25:17.104Z,45.12
2022-09-12T14:27:45.800Z,46.89
2022-09-12T14:30:23.809Z,45.69
2022-09-12T14:33:06.847Z,50.99
2022-09-12T14:35:30.584Z,51.13
2022-09-12T14:37:54.179Z,47.65
2022-09-12T14:40:21.952Z,49.57
2022-09-12T14:42:46.802Z,49.73
2022-09-12T14:45:18.288Z,49.37
2022-09-12T14:47:44.455Z,45.55
2022-09-12T14:50:19.561Z,46.63
2022-09-12T14:52:44.749Z,44.21
2022-09-12T14:55:33.857Z,47.75
2022-09-12T14:58:18.076Z,50.79
2022-09-12T15:00:59.595Z,47.72
2022-09-12T15:03:29.890Z,44.47
2022-09-12T15:05:55.232Z,49.10
2022-09-12T15:08:18.833Z,49.73
2022-09-12T15:10:42.433Z,50.64
2022-09-12T15:13:23.952Z,51.55
2022-09-12T15:15:51.188Z,48.31
2022-09-12T15:18:14.986Z,50.00
2022-09-12T15:20:40.160Z,50.33
2022-09-12T15:23:06.063Z,49.40
2022-09-12T15:25:29.670Z,48.20
2022-09-12T15:27:56.066Z,49.88
2022-09-12T15:30:19.765Z,48.03
2022-09-12T15:32:45.907Z,51.90
2022-09-12T15:35:13.535Z,47.07
2022-09-12T15:37:37.084Z,53.60
2022-09-12T15:40:02.706Z,47.31
2022-09-12T15:42:31.399Z,51.04
2022-09-12T15:44:58.394Z,51.27
2022-09-12T15:47:24.216Z,53.11
2022-09-12T15:49:47.740Z,48.69
2022-09-12T15:52:16.664Z,54.01
2022-09-12T15:54:41.082Z,53.85
2022-09-12T15:57:06.412Z,54.36
2022-09-12T15:59:31.105Z,53.92
2022-09-12T16:01:54.688Z,54.00
2022-09-12T16:04:23.831Z,53.97
2022-09-12T16:06:47.378Z,54.74
2022-09-12T16:09:16.062Z,53.40
2022-09-12T16:11:40.329Z,55.92
2022-09-12T16:14:06.713Z,57.74
2022-09-12T16:16:30.234Z,59.38
2022-09-12T16:18:53.887Z,58.92
2022-09-12T16:21:17.525Z,60.04
2022-09-12T16:23:43.508Z,59.21
2022-09-12T16:26:08.302Z,57.68
2022-09-12T16:28:33.275Z,59.33
2022-09-12T16:30:58.882Z,61.01
2022-09-12T16:33:22.444Z,61.18
2022-09-12T16:35:45.963Z,60.17
2022-09-12T16:38:09.528Z,61.07
2022-09-12T16:40:33.050Z,62.75
2022-09-12T16:42:56.600Z,62.79
2022-09-12T16:47:45.050Z,61.32
2022-09-12T16:50:09.971Z,61.15
2022-09-12T16:52:35.111Z,63.61
2022-09-12T16:54:58.720Z,63.82
2022-09-12T16:57:22.882Z,62.31
2022-09-12T16:59:46.494Z,63.24
2022-09-12T17:02:12.695Z,62.09
2022-09-12T17:04:37.610Z,63.31
2022-09-12T17:07:01.126Z,63.72
2022-09-12T17:09:24.774Z,63.55
2022-09-12T17:11:50.209Z,64.18
2022-09-12T17:14:13.802Z,63.82
2022-09-12T17:16:39.669Z,63.25
2022-09-12T17:19:03.563Z,63.29
2022-09-12T17:21:28.656Z,63.90
2022-09-12T17:23:52.300Z,63.87
2022-09-12T17:26:16.195Z,64.68
2022-09-12T17:28:40.907Z,65.60
2022-09-12T17:31:07.196Z,65.03
2022-09-12T17:33:32.086Z,66.30
2022-09-12T17:35:56.384Z,65.36
2022-09-12T17:38:25.252Z,65.65
2022-09-12T17:40:59.400Z,65.66
2022-09-12T17:43:23.243Z,66.14
2022-09-12T17:45:46.782Z,66.88
2022-09-12T17:48:12.689Z,66.50
2022-09-12T17:50:39.381Z,67.07
2022-09-12T17:53:03.347Z,67.10
2022-09-12T17:55:32.074Z,66.87
2022-09-12T17:57:55.901Z,68.28
2022-09-12T18:00:40.528Z,67.40
2022-09-12T18:03:03.129Z,67.92
2022-09-12T18:05:26.703Z,68.54
2022-09-12T18:07:50.259Z,68.33
2022-09-12T18:10:13.873Z,68.49
2022-09-12T18:12:38.879Z,68.62
2022-09-12T18:15:02.404Z,69.57
2022-09-12T18:17:25.992Z,69.48
2022-09-12T18:19:53.476Z,69.26
2022-09-12T18:22:17.431Z,69.99
2022-09-12T18:24:41.344Z,70.29
2022-09-12T18:27:05.243Z,70.31
2022-09-12T18:29:30.161Z,70.20
2022-09-12T18:31:53.763Z,70.25
2022-09-12T18:34:18.431Z,70.50
2022-09-12T18:36:42.235Z,70.85
2022-09-12T18:39:05.844Z,70.80
2022-09-12T18:41:29.967Z,71.23
2022-09-12T18:43:56.655Z,71.26
2022-09-12T18:46:21.963Z,71.83
2022-09-12T18:48:46.714Z,71.95
2022-09-12T18:51:14.711Z,72.16
2022-09-12T18:53:38.965Z,72.39
2022-09-12T18:56:04.688Z,72.29
2022-09-12T18:58:28.330Z,72.70
2022-09-12T19:00:51.976Z,72.89
2022-09-12T19:03:16.939Z,73.17
2022-09-12T19:05:40.703Z,73.43
2022-09-12T19:08:04.922Z,72.93
2022-09-12T19:10:28.466Z,73.28
2022-09-12T19:12:51.984Z,73.69
2022-09-12T19:15:15.556Z,74.06
2022-09-12T19:17:39.082Z,74.19
2022-09-12T19:20:04.914Z,74.69
2022-09-12T19:22:28.610Z,75.07
2022-09-12T19:24:52.171Z,74.74
2022-09-12T19:27:16.151Z,75.53
2022-09-12T19:29:39.747Z,75.39
2022-09-12T19:32:03.977Z,75.21
2022-09-12T19:34:28.124Z,75.82
2022-09-12T19:36:54.604Z,75.11
2022-09-12T19:39:19.825Z,75.10
2022-09-12T19:41:43.689Z,75.20
2022-09-12T19:44:07.403Z,75.30
2022-09-12T19:46:30.972Z,76.23
2022-09-12T19:48:55.444Z,76.34
2022-09-12T19:51:19.895Z,76.79
2022-09-12T19:53:45.513Z,76.81
2022-09-12T19:56:11.893Z,76.62
2022-09-12T19:58:41.059Z,77.22
2022-09-12T20:01:11.896Z,77.86
2022-09-12T20:03:35.514Z,77.51
2022-09-12T20:06:03.901Z,78.10
2022-09-12T20:08:27.494Z,78.34
2022-09-12T20:10:56.859Z,78.68
2022-09-12T20:13:20.671Z,78.25
2022-09-12T20:15:44.282Z,78.17
2022-09-12T20:18:07.884Z,77.73
2022-09-12T20:20:32.736Z,77.84
2022-09-12T20:22:56.422Z,78.31
2022-09-12T20:25:20.690Z,79.37
2022-09-12T20:27:45.681Z,79.36
2022-09-12T20:30:11.311Z,78.90
2022-09-12T20:32:34.948Z,79.61
2022-09-12T20:34:58.520Z,79.11
2022-09-12T20:37:22.256Z,79.17
2022-09-12T20:39:49.013Z,78.73
2022-09-12T20:42:14.490Z,78.83
2022-09-12T20:44:39.395Z,79.24
2022-09-12T20:47:03.020Z,79.28
2022-09-12T20:49:26.584Z,78.91
2022-09-12T20:51:50.243Z,79.62
2022-09-12T20:54:13.815Z,79.89
2022-09-12T20:56:39.041Z,79.49
2022-09-12T20:59:03.257Z,79.46
2022-09-12T21:01:30.050Z,79.68
2022-09-12T21:03:54.225Z,80.26
2022-09-12T21:06:18.394Z,79.86
2022-09-12T21:08:42.153Z,80.11
2022-09-12T21:11:06.747Z,79.43
2022-09-12T21:13:30.919Z,80.59
2022-09-12T21:16:00.123Z,80.04
2022-09-12T21:18:25.171Z,80.35
2022-09-12T21:20:53.726Z,80.86
2022-09-12T21:23:17.289Z,80.56
2022-09-12T21:25:40.857Z,80.15
2022-09-12T21:28:04.441Z,80.29
2022-09-12T21:30:28.080Z,80.30
2022-09-12T21:32:51.760Z,80.32
2022-09-12T21:35:17.055Z,80.77
2022-09-12T21:37:40.701Z,79.75
2022-09-12T21:40:05.640Z,80.18
2022-09-12T21:42:29.382Z,80.60
2022-09-12T21:44:53.023Z,82.22
2022-09-12T21:47:16.613Z,80.63
2022-09-12T21:49:40.250Z,81.31
2022-09-12T21:52:05.675Z,81.04
2022-09-12T21:54:29.286Z,80.40
2022-09-12T21:56:53.134Z,81.46
2022-09-12T21:59:16.713Z,81.39
2022-09-12T22:01:40.333Z,81.31
2022-09-12T22:04:04.651Z,81.40
2022-09-12T22:06:28.243Z,81.62
2022-09-12T22:08:53.195Z,81.83
2022-09-12T22:11:19.364Z,81.29
2022-09-12T22:13:44.014Z,81.37
2022-09-12T22:16:08.119Z,80.98
2022-09-12T22:18:33.896Z,80.60
2022-09-12T22:21:02.804Z,81.21
2022-09-12T22:23:43.579Z,81.59
2022-09-12T22:26:09.503Z,81.16
2022-09-12T22:28:33.453Z,80.83
2022-09-12T22:30:57.446Z,81.16
2022-09-12T22:33:21.046Z,81.53
2022-09-12T22:35:44.637Z,81.36
2022-09-12T22:38:08.173Z,82.27
2022-09-12T22:40:31.768Z,82.12
2022-09-12T22:42:56.673Z,82.08
2022-09-12T22:45:20.402Z,81.11
2022-09-12T22:47:43.937Z,81.91
2022-09-12T22:50:09.077Z,82.13
2022-09-12T22:52:32.609Z,80.96
2022-09-12T22:54:56.226Z,83.86
2022-09-12T22:57:19.978Z,82.34
2022-09-12T22:59:44.934Z,82.21
2022-09-12T23:02:08.563Z,82.68
2022-09-12T23:04:32.905Z,81.39
2022-09-12T23:06:56.965Z,83.32
2022-09-12T23:09:20.544Z,83.34
2022-09-12T23:11:44.113Z,81.97
2022-09-12T23:14:07.719Z,81.90
2022-09-12T23:16:32.722Z,82.55
2022-09-12T23:18:56.634Z,82.93
2022-09-12T23:21:22.608Z,81.98
2022-09-12T23:23:46.682Z,82.80
2022-09-12T23:26:13.788Z,83.22
2022-09-12T23:28:38.177Z,82.65
2022-09-12T23:31:01.990Z,82.34
2022-09-12T23:33:27.419Z,82.54
2022-09-12T23:35:51.146Z,83.36
2022-09-12T23:38:14.909Z,82.68
2022-09-12T23:40:38.457Z,82.35
2022-09-12T23:43:02.114Z,82.78
2022-09-12T23:45:25.796Z,82.74
2022-09-12T23:47:49.442Z,83.39
2022-09-12T23:50:14.370Z,83.07
2022-09-12T23:52:37.962Z,83.88
2022-09-12T23:55:01.465Z,83.20
2022-09-12T23:57:25.052Z,82.65
2022-09-12T23:59:48.570Z,83.56
